sensor_id;sensor_type;location;lat;lon;timestamp;pressure;altitude;pressure_sealevel;temperature;humidity
74466;BME280;62916;50.044;15.938;2022-12-18T00:02:00;100552.83;;;20.91;46.28
74466;BME280;62916;50.044;15.938;2022-12-18T00:04:31;100554.70;;;20.93;46.29
74466;BME280;62916;50.044;15.938;2022-12-18T00:07:02;100555.25;;;20.95;46.19
74466;BME280;62916;50.044;15.938;2022-12-18T00:09:33;100555.98;;;20.93;46.14
74466;BME280;62916;50.044;15.938;2022-12-18T00:12:09;100564.20;;;20.95;46.05
74466;BME280;62916;50.044;15.938;2022-12-18T00:14:46;100566.48;;;20.90;46.09
74466;BME280;62916;50.044;15.938;2022-12-18T00:17:17;100573.83;;;20.88;46.22
74466;BME280;62916;50.044;15.938;2022-12-18T00:19:48;100579.66;;;20.83;46.41
74466;BME280;62916;50.044;15.938;2022-12-18T00:22:18;100580.63;;;20.81;46.27
74466;BME280;62916;50.044;15.938;2022-12-18T00:24:49;100584.63;;;20.80;46.19
74466;BME280;62916;50.044;15.938;2022-12-18T00:27:20;100584.30;;;20.76;46.35
74466;BME280;62916;50.044;15.938;2022-12-18T00:29:50;100594.56;;;20.78;46.29
74466;BME280;62916;50.044;15.938;2022-12-18T00:32:21;100601.73;;;20.76;46.22
74466;BME280;62916;50.044;15.938;2022-12-18T00:34:52;100599.88;;;20.73;46.29
74466;BME280;62916;50.044;15.938;2022-12-18T00:37:22;100601.80;;;20.69;46.39
74466;BME280;62916;50.044;15.938;2022-12-18T00:39:53;100607.63;;;20.63;46.62
74466;BME280;62916;50.044;15.938;2022-12-18T00:42:24;100613.49;;;20.59;46.38
74466;BME280;62916;50.044;15.938;2022-12-18T00:45:12;100612.25;;;20.60;46.59
74466;BME280;62916;50.044;15.938;2022-12-18T00:47:43;100613.66;;;20.61;46.50
74466;BME280;62916;50.044;15.938;2022-12-18T00:50:14;100613.66;;;20.58;46.51
74466;BME280;62916;50.044;15.938;2022-12-18T00:52:44;100613.95;;;20.55;46.66
74466;BME280;62916;50.044;15.938;2022-12-18T00:55:16;100614.02;;;20.51;46.64
74466;BME280;62916;50.044;15.938;2022-12-18T00:57:47;100612.21;;;20.48;46.67
74466;BME280;62916;50.044;15.938;2022-12-18T01:00:18;100620.12;;;20.45;46.83
74466;BME280;62916;50.044;15.938;2022-12-18T01:02:49;100624.07;;;20.42;46.88
74466;BME280;62916;50.044;15.938;2022-12-18T01:05:20;100630.55;;;20.40;46.95
74466;BME280;62916;50.044;15.938;2022-12-18T01:07:51;100635.11;;;20.37;46.81
74466;BME280;62916;50.044;15.938;2022-12-18T01:10:22;100627.60;;;20.34;46.93
74466;BME280;62916;50.044;15.938;2022-12-18T01:12:52;100629.85;;;20.33;47.02
74466;BME280;62916;50.044;15.938;2022-12-18T01:15:24;100626.47;;;20.33;47.08
74466;BME280;62916;50.044;15.938;2022-12-18T01:17:54;100626.37;;;20.31;46.94
74466;BME280;62916;50.044;15.938;2022-12-18T01:20:25;100636.23;;;20.33;47.01
74466;BME280;62916;50.044;15.938;2022-12-18T01:22:56;100642.09;;;20.33;46.93
74466;BME280;62916;50.044;15.938;2022-12-18T01:25:26;100640.73;;;20.31;47.03
74466;BME280;62916;50.044;15.938;2022-12-18T01:27:57;100639.59;;;20.29;46.86
74466;BME280;62916;50.044;15.938;2022-12-18T01:30:28;100639.20;;;20.28;46.85
74466;BME280;62916;50.044;15.938;2022-12-18T01:32:59;100637.73;;;20.24;46.99
74466;BME280;62916;50.044;15.938;2022-12-18T01:35:29;100641.40;;;20.20;46.94
74466;BME280;62916;50.044;15.938;2022-12-18T01:38:00;100650.24;;;20.16;46.98
74466;BME280;62916;50.044;15.938;2022-12-18T01:40:30;100653.63;;;20.13;47.04
74466;BME280;62916;50.044;15.938;2022-12-18T01:43:01;100659.09;;;20.13;47.20
74466;BME280;62916;50.044;15.938;2022-12-18T01:45:33;100659.09;;;20.16;47.18
74466;BME280;62916;50.044;15.938;2022-12-18T01:48:07;100661.68;;;20.20;46.94
74466;BME280;62916;50.044;15.938;2022-12-18T01:50:40;100665.80;;;20.26;47.10
74466;BME280;62916;50.044;15.938;2022-12-18T01:53:15;100663.66;;;20.32;47.07
74466;BME280;62916;50.044;15.938;2022-12-18T01:55:50;100669.14;;;20.38;47.25
74466;BME280;62916;50.044;15.938;2022-12-18T01:58:27;100676.27;;;20.43;46.98
74466;BME280;62916;50.044;15.938;2022-12-18T02:01:00;100674.27;;;20.47;46.91
74466;BME280;62916;50.044;15.938;2022-12-18T02:03:32;100668.48;;;20.50;46.95
74466;BME280;62916;50.044;15.938;2022-12-18T02:06:09;100673.09;;;20.53;47.00
74466;BME280;62916;50.044;15.938;2022-12-18T02:08:48;100673.98;;;20.56;46.94
74466;BME280;62916;50.044;15.938;2022-12-18T02:11:29;100676.35;;;20.59;47.04
74466;BME280;62916;50.044;15.938;2022-12-18T02:14:11;100683.91;;;20.61;47.03
74466;BME280;62916;50.044;15.938;2022-12-18T02:16:54;100677.66;;;20.64;47.12
74466;BME280;62916;50.044;15.938;2022-12-18T02:19:46;100680.34;;;20.67;46.94
74466;BME280;62916;50.044;15.938;2022-12-18T02:22:29;100679.83;;;20.68;47.14
74466;BME280;62916;50.044;15.938;2022-12-18T02:25:13;100677.08;;;20.68;47.02
74466;BME280;62916;50.044;15.938;2022-12-18T02:27:50;100681.08;;;20.69;46.99
74466;BME280;62916;50.044;15.938;2022-12-18T02:30:22;100689.02;;;20.69;47.22
74466;BME280;62916;50.044;15.938;2022-12-18T02:32:54;100692.30;;;20.69;46.98
74466;BME280;62916;50.044;15.938;2022-12-18T02:35:29;100697.54;;;20.69;47.11
74466;BME280;62916;50.044;15.938;2022-12-18T02:38:00;100695.17;;;20.71;47.13
74466;BME280;62916;50.044;15.938;2022-12-18T02:40:34;100700.98;;;20.70;47.07
74466;BME280;62916;50.044;15.938;2022-12-18T02:43:11;100705.84;;;20.69;47.12
74466;BME280;62916;50.044;15.938;2022-12-18T02:45:52;100700.36;;;20.68;47.28
74466;BME280;62916;50.044;15.938;2022-12-18T02:48:27;100699.13;;;20.64;47.21
74466;BME280;62916;50.044;15.938;2022-12-18T02:51:10;100696.88;;;20.61;47.20
74466;BME280;62916;50.044;15.938;2022-12-18T02:53:48;100705.50;;;20.58;47.25
74466;BME280;62916;50.044;15.938;2022-12-18T02:56:27;100707.92;;;20.57;47.44
74466;BME280;62916;50.044;15.938;2022-12-18T02:59:00;100709.61;;;20.57;47.34
74466;BME280;62916;50.044;15.938;2022-12-18T03:01:38;100709.45;;;20.53;47.21
74466;BME280;62916;50.044;15.938;2022-12-18T03:04:16;100711.48;;;20.54;47.29
74466;BME280;62916;50.044;15.938;2022-12-18T03:06:53;100714.92;;;20.53;47.44
74466;BME280;62916;50.044;15.938;2022-12-18T03:09:29;100716.06;;;20.55;47.49
74466;BME280;62916;50.044;15.938;2022-12-18T03:12:04;100713.21;;;20.56;47.24
74466;BME280;62916;50.044;15.938;2022-12-18T03:14:59;100719.27;;;20.54;47.27
74466;BME280;62916;50.044;15.938;2022-12-18T03:17:33;100723.95;;;20.53;47.35
74466;BME280;62916;50.044;15.938;2022-12-18T03:20:08;100720.50;;;20.51;47.40
74466;BME280;62916;50.044;15.938;2022-12-18T03:22:40;100721.52;;;20.47;47.60
74466;BME280;62916;50.044;15.938;2022-12-18T03:25:14;100726.14;;;20.47;47.58
74466;BME280;62916;50.044;15.938;2022-12-18T03:27:49;100732.98;;;20.45;47.66
74466;BME280;62916;50.044;15.938;2022-12-18T03:30:19;100740.35;;;20.43;47.32
74466;BME280;62916;50.044;15.938;2022-12-18T03:32:53;100742.25;;;20.39;47.64
74466;BME280;62916;50.044;15.938;2022-12-18T03:35:31;100745.57;;;20.39;47.62
74466;BME280;62916;50.044;15.938;2022-12-18T03:38:03;100747.04;;;20.40;47.61
74466;BME280;62916;50.044;15.938;2022-12-18T03:40:43;100753.74;;;20.39;47.54
74466;BME280;62916;50.044;15.938;2022-12-18T03:43:21;100753.01;;;20.35;47.40
74466;BME280;62916;50.044;15.938;2022-12-18T03:46:02;100753.59;;;20.35;47.56
74466;BME280;62916;50.044;15.938;2022-12-18T03:48:37;100747.48;;;20.35;47.50
74466;BME280;62916;50.044;15.938;2022-12-18T03:51:13;100748.60;;;20.34;47.49
74466;BME280;62916;50.044;15.938;2022-12-18T03:53:49;100750.73;;;20.33;47.50
74466;BME280;62916;50.044;15.938;2022-12-18T03:56:23;100752.75;;;20.29;47.45
74466;BME280;62916;50.044;15.938;2022-12-18T03:58:56;100750.59;;;20.27;47.60
74466;BME280;62916;50.044;15.938;2022-12-18T04:01:33;100754.09;;;20.26;47.59
74466;BME280;62916;50.044;15.938;2022-12-18T04:04:07;100753.38;;;20.24;47.48
74466;BME280;62916;50.044;15.938;2022-12-18T04:06:39;100749.86;;;20.21;47.57
74466;BME280;62916;50.044;15.938;2022-12-18T04:09:11;100752.27;;;20.16;47.67
74466;BME280;62916;50.044;15.938;2022-12-18T04:11:42;100764.39;;;20.19;47.55
74466;BME280;62916;50.044;15.938;2022-12-18T04:14:14;100768.73;;;20.18;47.57
74466;BME280;62916;50.044;15.938;2022-12-18T04:16:47;100764.55;;;20.14;47.53
74466;BME280;62916;50.044;15.938;2022-12-18T04:19:17;100762.08;;;20.12;47.52
74466;BME280;62916;50.044;15.938;2022-12-18T04:21:48;100765.50;;;20.10;47.54
74466;BME280;62916;50.044;15.938;2022-12-18T04:24:19;100770.29;;;20.09;47.49
74466;BME280;62916;50.044;15.938;2022-12-18T04:26:49;100777.48;;;20.06;47.50
74466;BME280;62916;50.044;15.938;2022-12-18T04:29:20;100782.05;;;20.05;47.51
74466;BME280;62916;50.044;15.938;2022-12-18T04:31:51;100780.93;;;20.03;47.56
74466;BME280;62916;50.044;15.938;2022-12-18T04:34:22;100781.99;;;20.02;47.41
74466;BME280;62916;50.044;15.938;2022-12-18T04:36:53;100782.56;;;20.02;47.43
74466;BME280;62916;50.044;15.938;2022-12-18T04:39:24;100784.11;;;19.99;47.42
74466;BME280;62916;50.044;15.938;2022-12-18T04:41:55;100782.86;;;19.97;47.30
74466;BME280;62916;50.044;15.938;2022-12-18T04:44:25;100783.54;;;19.97;47.35
74466;BME280;62916;50.044;15.938;2022-12-18T04:46:56;100792.04;;;19.96;47.36
74466;BME280;62916;50.044;15.938;2022-12-18T04:49:26;100799.14;;;19.93;47.49
74466;BME280;62916;50.044;15.938;2022-12-18T04:51:57;100799.25;;;19.92;47.40
74466;BME280;62916;50.044;15.938;2022-12-18T04:54:28;100806.96;;;19.91;47.49
74466;BME280;62916;50.044;15.938;2022-12-18T04:56:59;100807.45;;;19.90;47.32
74466;BME280;62916;50.044;15.938;2022-12-18T04:59:30;100809.26;;;19.90;47.40
74466;BME280;62916;50.044;15.938;2022-12-18T05:02:00;100807.17;;;19.90;47.42
74466;BME280;62916;50.044;15.938;2022-12-18T05:04:31;100815.67;;;19.87;47.36
74466;BME280;62916;50.044;15.938;2022-12-18T05:07:02;100814.70;;;19.86;47.43
74466;BME280;62916;50.044;15.938;2022-12-18T05:09:33;100813.52;;;19.86;47.40
74466;BME280;62916;50.044;15.938;2022-12-18T05:12:04;100811.21;;;19.88;47.30
74466;BME280;62916;50.044;15.938;2022-12-18T05:14:35;100816.00;;;19.87;47.34
74466;BME280;62916;50.044;15.938;2022-12-18T05:17:05;100815.93;;;19.84;47.32
74466;BME280;62916;50.044;15.938;2022-12-18T05:19:36;100818.93;;;19.84;47.32
74466;BME280;62916;50.044;15.938;2022-12-18T05:22:08;100821.74;;;19.85;47.36
74466;BME280;62916;50.044;15.938;2022-12-18T05:24:39;100824.10;;;19.86;47.28
74466;BME280;62916;50.044;15.938;2022-12-18T05:27:09;100827.09;;;19.85;47.19
74466;BME280;62916;50.044;15.938;2022-12-18T05:29:40;100828.20;;;19.82;47.22
74466;BME280;62916;50.044;15.938;2022-12-18T05:32:11;100831.86;;;19.81;47.20
74466;BME280;62916;50.044;15.938;2022-12-18T05:34:41;100832.41;;;19.78;47.43
74466;BME280;62916;50.044;15.938;2022-12-18T05:37:12;100838.02;;;19.75;47.41
74466;BME280;62916;50.044;15.938;2022-12-18T05:39:43;100842.23;;;19.72;47.32
74466;BME280;62916;50.044;15.938;2022-12-18T05:42:14;100841.87;;;19.66;47.60
74466;BME280;62916;50.044;15.938;2022-12-18T05:44:46;100841.91;;;19.64;47.52
74466;BME280;62916;50.044;15.938;2022-12-18T05:47:16;100844.67;;;19.64;47.51
74466;BME280;62916;50.044;15.938;2022-12-18T05:49:47;100845.96;;;19.63;47.61
74466;BME280;62916;50.044;15.938;2022-12-18T05:52:18;100844.13;;;19.60;47.69
74466;BME280;62916;50.044;15.938;2022-12-18T05:54:48;100851.45;;;19.61;47.53
74466;BME280;62916;50.044;15.938;2022-12-18T05:57:19;100857.21;;;19.61;47.52
74466;BME280;62916;50.044;15.938;2022-12-18T05:59:50;100861.15;;;19.61;47.52
74466;BME280;62916;50.044;15.938;2022-12-18T06:02:21;100867.44;;;19.59;47.56
74466;BME280;62916;50.044;15.938;2022-12-18T06:04:52;100874.46;;;19.58;47.52
74466;BME280;62916;50.044;15.938;2022-12-18T06:07:22;100870.73;;;19.56;47.65
74466;BME280;62916;50.044;15.938;2022-12-18T06:09:53;100878.44;;;19.54;47.60
74466;BME280;62916;50.044;15.938;2022-12-18T06:12:24;100884.10;;;19.51;47.68
74466;BME280;62916;50.044;15.938;2022-12-18T06:14:55;100882.13;;;19.51;47.56
74466;BME280;62916;50.044;15.938;2022-12-18T06:17:29;100892.60;;;19.51;47.74
74466;BME280;62916;50.044;15.938;2022-12-18T06:20:00;100888.83;;;19.51;47.66
74466;BME280;62916;50.044;15.938;2022-12-18T06:22:31;100890.20;;;19.48;47.73
74466;BME280;62916;50.044;15.938;2022-12-18T06:25:03;100901.41;;;19.45;47.80
74466;BME280;62916;50.044;15.938;2022-12-18T06:27:36;100897.02;;;19.42;47.73
74466;BME280;62916;50.044;15.938;2022-12-18T06:30:08;100900.06;;;19.42;47.85
74466;BME280;62916;50.044;15.938;2022-12-18T06:32:40;100903.20;;;19.42;47.94
74466;BME280;62916;50.044;15.938;2022-12-18T06:35:11;100905.96;;;19.42;47.76
74466;BME280;62916;50.044;15.938;2022-12-18T06:37:42;100911.92;;;19.42;47.68
74466;BME280;62916;50.044;15.938;2022-12-18T06:40:12;100908.14;;;19.40;47.64
74466;BME280;62916;50.044;15.938;2022-12-18T06:42:43;100906.36;;;19.37;47.57
74466;BME280;62916;50.044;15.938;2022-12-18T06:45:17;100907.98;;;19.36;47.49
74466;BME280;62916;50.044;15.938;2022-12-18T06:47:47;100907.23;;;19.33;47.67
74466;BME280;62916;50.044;15.938;2022-12-18T06:50:18;100908.30;;;19.32;47.58
74466;BME280;62916;50.044;15.938;2022-12-18T06:52:49;100912.07;;;19.32;47.76
74466;BME280;62916;50.044;15.938;2022-12-18T06:55:20;100914.64;;;19.30;47.63
74466;BME280;62916;50.044;15.938;2022-12-18T06:57:51;100922.43;;;19.27;47.66
74466;BME280;62916;50.044;15.938;2022-12-18T07:00:22;100922.86;;;19.25;47.65
74466;BME280;62916;50.044;15.938;2022-12-18T07:02:53;100932.42;;;19.24;47.57
74466;BME280;62916;50.044;15.938;2022-12-18T07:05:24;100939.16;;;19.22;47.84
74466;BME280;62916;50.044;15.938;2022-12-18T07:07:55;100942.48;;;19.22;47.92
74466;BME280;62916;50.044;15.938;2022-12-18T07:10:25;100933.40;;;19.19;47.86
74466;BME280;62916;50.044;15.938;2022-12-18T07:12:56;100935.39;;;19.22;47.93
74466;BME280;62916;50.044;15.938;2022-12-18T07:15:27;100935.90;;;19.21;47.94
74466;BME280;62916;50.044;15.938;2022-12-18T07:17:58;100936.48;;;19.19;47.89
74466;BME280;62916;50.044;15.938;2022-12-18T07:20:29;100934.63;;;19.12;47.57
74466;BME280;62916;50.044;15.938;2022-12-18T07:22:59;100924.55;;;19.06;47.74
74466;BME280;62916;50.044;15.938;2022-12-18T07:25:34;100932.77;;;19.12;47.67
74466;BME280;62916;50.044;15.938;2022-12-18T07:28:06;100936.65;;;19.13;47.53
74466;BME280;62916;50.044;15.938;2022-12-18T07:30:43;100941.27;;;19.14;47.63
74466;BME280;62916;50.044;15.938;2022-12-18T07:33:16;100948.36;;;19.13;47.70
74466;BME280;62916;50.044;15.938;2022-12-18T07:35:47;100953.92;;;19.13;47.69
74466;BME280;62916;50.044;15.938;2022-12-18T07:38:18;100955.77;;;19.11;47.62
74466;BME280;62916;50.044;15.938;2022-12-18T07:40:49;100959.15;;;19.07;47.85
74466;BME280;62916;50.044;15.938;2022-12-18T07:43:19;100957.04;;;19.02;47.92
74466;BME280;62916;50.044;15.938;2022-12-18T07:45:51;100952.84;;;18.99;48.11
74466;BME280;62916;50.044;15.938;2022-12-18T07:48:22;100954.20;;;19.00;48.14
74466;BME280;62916;50.044;15.938;2022-12-18T07:50:53;100963.48;;;19.01;48.08
74466;BME280;62916;50.044;15.938;2022-12-18T07:53:24;100966.42;;;18.97;48.16
74466;BME280;62916;50.044;15.938;2022-12-18T07:55:58;100967.34;;;18.88;48.35
74466;BME280;62916;50.044;15.938;2022-12-18T07:58:49;100970.64;;;18.77;48.51
74466;BME280;62916;50.044;15.938;2022-12-18T08:01:20;100970.09;;;18.78;48.60
74466;BME280;62916;50.044;15.938;2022-12-18T08:03:51;100976.35;;;18.84;48.56
74466;BME280;62916;50.044;15.938;2022-12-18T08:06:22;100976.86;;;18.90;48.47
74466;BME280;62916;50.044;15.938;2022-12-18T08:08:55;100979.08;;;18.91;48.42
74466;BME280;62916;50.044;15.938;2022-12-18T08:11:27;100979.98;;;18.91;48.42
74466;BME280;62916;50.044;15.938;2022-12-18T08:13:59;100986.73;;;18.92;48.40
74466;BME280;62916;50.044;15.938;2022-12-18T08:16:29;100993.30;;;18.92;48.33
74466;BME280;62916;50.044;15.938;2022-12-18T08:19:00;100995.90;;;18.92;48.34
74466;BME280;62916;50.044;15.938;2022-12-18T08:21:32;100998.81;;;18.92;48.44
74466;BME280;62916;50.044;15.938;2022-12-18T08:24:03;100998.54;;;18.91;48.33
74466;BME280;62916;50.044;15.938;2022-12-18T08:26:34;100993.77;;;18.92;48.47
74466;BME280;62916;50.044;15.938;2022-12-18T08:29:05;101000.28;;;18.92;48.45
74466;BME280;62916;50.044;15.938;2022-12-18T08:31:36;100998.92;;;18.97;48.39
74466;BME280;62916;50.044;15.938;2022-12-18T08:34:07;100999.40;;;19.09;48.30
74466;BME280;62916;50.044;15.938;2022-12-18T08:36:38;100997.23;;;19.23;48.10
74466;BME280;62916;50.044;15.938;2022-12-18T08:39:09;100995.70;;;19.35;47.98
74466;BME280;62916;50.044;15.938;2022-12-18T08:41:39;100994.48;;;19.45;47.76
74466;BME280;62916;50.044;15.938;2022-12-18T08:44:10;101000.41;;;19.53;47.69
74466;BME280;62916;50.044;15.938;2022-12-18T08:46:58;101005.33;;;19.62;47.42
74466;BME280;62916;50.044;15.938;2022-12-18T08:49:29;101013.59;;;19.68;47.33
74466;BME280;62916;50.044;15.938;2022-12-18T08:52:00;101014.92;;;19.72;47.29
74466;BME280;62916;50.044;15.938;2022-12-18T08:54:32;101013.09;;;19.77;47.32
74466;BME280;62916;50.044;15.938;2022-12-18T08:57:03;101009.26;;;19.82;47.18
74466;BME280;62916;50.044;15.938;2022-12-18T08:59:33;101013.55;;;19.86;47.21
74466;BME280;62916;50.044;15.938;2022-12-18T09:02:04;101008.06;;;19.89;47.15
74466;BME280;62916;50.044;15.938;2022-12-18T09:04:36;101014.86;;;19.94;47.06
74466;BME280;62916;50.044;15.938;2022-12-18T09:07:06;101011.93;;;19.96;47.07
74466;BME280;62916;50.044;15.938;2022-12-18T09:09:38;101011.08;;;20.01;47.10
74466;BME280;62916;50.044;15.938;2022-12-18T09:12:09;101007.89;;;20.03;46.97
74466;BME280;62916;50.044;15.938;2022-12-18T09:14:40;101011.79;;;20.04;47.21
74466;BME280;62916;50.044;15.938;2022-12-18T09:17:10;101007.27;;;20.05;47.31
74466;BME280;62916;50.044;15.938;2022-12-18T09:19:41;101002.42;;;20.05;47.23
74466;BME280;62916;50.044;15.938;2022-12-18T09:22:12;101002.20;;;20.05;47.31
74466;BME280;62916;50.044;15.938;2022-12-18T09:24:43;101010.20;;;20.08;47.41
74466;BME280;62916;50.044;15.938;2022-12-18T09:27:14;101005.23;;;20.12;47.40
74466;BME280;62916;50.044;15.938;2022-12-18T09:29:45;100996.17;;;20.16;47.48
74466;BME280;62916;50.044;15.938;2022-12-18T09:32:16;100991.21;;;20.15;47.55
74466;BME280;62916;50.044;15.938;2022-12-18T09:34:51;100998.10;;;20.25;47.23
74466;BME280;62916;50.044;15.938;2022-12-18T09:37:21;100996.36;;;20.28;47.41
74466;BME280;62916;50.044;15.938;2022-12-18T09:39:52;100988.26;;;20.28;47.44
74466;BME280;62916;50.044;15.938;2022-12-18T09:42:23;100995.58;;;20.34;47.39
74466;BME280;62916;50.044;15.938;2022-12-18T09:44:55;100989.33;;;20.37;47.44
74466;BME280;62916;50.044;15.938;2022-12-18T09:47:28;100989.17;;;20.39;47.35
74466;BME280;62916;50.044;15.938;2022-12-18T09:50:03;100985.36;;;20.42;47.30
74466;BME280;62916;50.044;15.938;2022-12-18T09:52:35;100988.48;;;20.44;47.42
74466;BME280;62916;50.044;15.938;2022-12-18T09:55:14;100987.75;;;20.48;47.40
74466;BME280;62916;50.044;15.938;2022-12-18T09:57:53;100993.41;;;20.51;47.35
74466;BME280;62916;50.044;15.938;2022-12-18T10:00:26;100993.10;;;20.54;47.16
74466;BME280;62916;50.044;15.938;2022-12-18T10:03:01;100994.79;;;20.58;47.05
74466;BME280;62916;50.044;15.938;2022-12-18T10:05:39;100996.23;;;20.64;47.07
74466;BME280;62916;50.044;15.938;2022-12-18T10:08:16;100993.36;;;20.68;47.02
74466;BME280;62916;50.044;15.938;2022-12-18T10:10:50;100985.83;;;20.71;47.08
74466;BME280;62916;50.044;15.938;2022-12-18T10:13:26;100986.84;;;20.71;47.18
74466;BME280;62916;50.044;15.938;2022-12-18T10:16:11;100994.52;;;20.74;47.13
74466;BME280;62916;50.044;15.938;2022-12-18T10:19:00;100993.52;;;20.81;47.20
74466;BME280;62916;50.044;15.938;2022-12-18T10:21:36;100995.45;;;20.84;46.91
74466;BME280;62916;50.044;15.938;2022-12-18T10:24:18;100995.70;;;20.86;47.06
74466;BME280;62916;50.044;15.938;2022-12-18T10:26:53;100997.43;;;20.87;46.99
74466;BME280;62916;50.044;15.938;2022-12-18T10:29:27;100999.88;;;20.91;46.96
74466;BME280;62916;50.044;15.938;2022-12-18T10:31:58;101004.30;;;20.96;47.00
74466;BME280;62916;50.044;15.938;2022-12-18T10:34:29;101008.34;;;21.00;46.98
74466;BME280;62916;50.044;15.938;2022-12-18T10:37:03;101010.45;;;21.04;46.74
74466;BME280;62916;50.044;15.938;2022-12-18T10:39:36;101011.75;;;21.08;46.69
74466;BME280;62916;50.044;15.938;2022-12-18T10:42:16;101016.33;;;21.10;46.55
74466;BME280;62916;50.044;15.938;2022-12-18T10:45:02;101025.48;;;21.14;46.73
74466;BME280;62916;50.044;15.938;2022-12-18T10:47:35;101024.38;;;21.17;46.48
74466;BME280;62916;50.044;15.938;2022-12-18T10:50:19;101022.64;;;21.18;46.65
74466;BME280;62916;50.044;15.938;2022-12-18T10:53:18;101016.19;;;21.16;46.63
74466;BME280;62916;50.044;15.938;2022-12-18T10:55:50;101022.16;;;21.14;46.63
74466;BME280;62916;50.044;15.938;2022-12-18T10:58:30;101024.20;;;21.13;46.56
74466;BME280;62916;50.044;15.938;2022-12-18T11:01:11;101020.67;;;21.11;46.62
74466;BME280;62916;50.044;15.938;2022-12-18T11:03:44;101019.71;;;21.09;46.56
74466;BME280;62916;50.044;15.938;2022-12-18T11:06:16;101017.96;;;21.10;46.83
74466;BME280;62916;50.044;15.938;2022-12-18T11:09:00;101013.73;;;21.08;46.82
74466;BME280;62916;50.044;15.938;2022-12-18T11:11:40;101011.59;;;21.09;46.90
74466;BME280;62916;50.044;15.938;2022-12-18T11:14:17;101006.17;;;21.09;46.86
74466;BME280;62916;50.044;15.938;2022-12-18T11:16:49;101006.68;;;21.05;46.86
74466;BME280;62916;50.044;15.938;2022-12-18T11:19:42;101005.10;;;21.04;46.81
74466;BME280;62916;50.044;15.938;2022-12-18T11:22:23;101008.09;;;21.04;46.78
74466;BME280;62916;50.044;15.938;2022-12-18T11:24:58;101007.87;;;21.05;46.70
74466;BME280;62916;50.044;15.938;2022-12-18T11:27:51;100999.73;;;21.03;46.96
74466;BME280;62916;50.044;15.938;2022-12-18T11:30:25;100996.81;;;21.05;46.83
74466;BME280;62916;50.044;15.938;2022-12-18T11:33:00;100994.38;;;21.04;46.81
74466;BME280;62916;50.044;15.938;2022-12-18T11:35:47;100991.27;;;21.04;46.79
74466;BME280;62916;50.044;15.938;2022-12-18T11:38:24;100988.23;;;21.04;46.90
74466;BME280;62916;50.044;15.938;2022-12-18T11:41:00;100981.84;;;21.00;46.90
74466;BME280;62916;50.044;15.938;2022-12-18T11:43:33;100985.81;;;21.05;46.75
74466;BME280;62916;50.044;15.938;2022-12-18T11:46:09;100984.45;;;21.07;46.84
74466;BME280;62916;50.044;15.938;2022-12-18T11:48:52;100985.46;;;21.10;46.65
74466;BME280;62916;50.044;15.938;2022-12-18T11:51:28;100984.39;;;21.10;46.72
74466;BME280;62916;50.044;15.938;2022-12-18T11:54:11;100980.41;;;21.15;46.60
74466;BME280;62916;50.044;15.938;2022-12-18T11:56:46;100972.38;;;21.22;46.51
74466;BME280;62916;50.044;15.938;2022-12-18T11:59:26;100970.97;;;21.36;46.51
74466;BME280;62916;50.044;15.938;2022-12-18T12:02:09;100965.96;;;21.45;46.26
74466;BME280;62916;50.044;15.938;2022-12-18T12:04:58;100958.16;;;21.53;46.12
74466;BME280;62916;50.044;15.938;2022-12-18T12:07:38;100952.67;;;21.62;45.85
74466;BME280;62916;50.044;15.938;2022-12-18T12:10:28;100960.35;;;21.68;46.03
74466;BME280;62916;50.044;15.938;2022-12-18T12:13:12;100952.20;;;21.72;45.81
74466;BME280;62916;50.044;15.938;2022-12-18T12:15:53;100953.69;;;21.75;45.98
74466;BME280;62916;50.044;15.938;2022-12-18T12:18:35;100953.79;;;21.78;45.81
74466;BME280;62916;50.044;15.938;2022-12-18T12:21:11;100953.55;;;21.81;45.64
74466;BME280;62916;50.044;15.938;2022-12-18T12:23:47;100959.27;;;21.84;45.69
74466;BME280;62916;50.044;15.938;2022-12-18T12:26:27;100957.67;;;21.86;45.49
74466;BME280;62916;50.044;15.938;2022-12-18T12:29:17;100955.62;;;21.90;45.53
74466;BME280;62916;50.044;15.938;2022-12-18T12:32:07;100959.92;;;21.93;45.65
74466;BME280;62916;50.044;15.938;2022-12-18T12:34:51;100955.45;;;21.93;45.63
74466;BME280;62916;50.044;15.938;2022-12-18T12:37:37;100954.62;;;21.97;45.39
74466;BME280;62916;50.044;15.938;2022-12-18T12:40:16;100951.85;;;21.98;45.50
74466;BME280;62916;50.044;15.938;2022-12-18T12:43:16;100949.36;;;21.94;45.50
74466;BME280;62916;50.044;15.938;2022-12-18T12:45:53;100947.55;;;21.94;45.46
74466;BME280;62916;50.044;15.938;2022-12-18T12:48:33;100947.83;;;21.97;45.42
74466;BME280;62916;50.044;15.938;2022-12-18T12:51:11;100951.73;;;21.98;45.48
74466;BME280;62916;50.044;15.938;2022-12-18T12:53:43;100950.88;;;21.95;45.60
74466;BME280;62916;50.044;15.938;2022-12-18T12:56:16;100954.21;;;21.95;45.61
74466;BME280;62916;50.044;15.938;2022-12-18T12:58:55;100949.86;;;21.93;45.53
74466;BME280;62916;50.044;15.938;2022-12-18T13:01:36;100955.06;;;21.93;45.44
74466;BME280;62916;50.044;15.938;2022-12-18T13:04:20;100948.16;;;21.95;45.60
74466;BME280;62916;50.044;15.938;2022-12-18T13:06:57;100942.80;;;21.94;45.43
74466;BME280;62916;50.044;15.938;2022-12-18T13:09:33;100941.33;;;21.93;45.58
74466;BME280;62916;50.044;15.938;2022-12-18T13:12:09;100944.55;;;21.95;45.66
74466;BME280;62916;50.044;15.938;2022-12-18T13:15:21;100948.73;;;21.96;45.85
74466;BME280;62916;50.044;15.938;2022-12-18T13:18:15;100960.88;;;21.94;45.67